createdAt,value
2018-06-16T00:04:20.399Z,17.50
2018-06-16T00:09:07.470Z,17.40
2018-06-16T00:13:51.878Z,17.30
2018-06-16T00:18:36.253Z,17.30
2018-06-16T00:23:20.728Z,17.20
2018-06-16T00:28:05.131Z,17.30
2018-06-16T00:32:49.476Z,17.20
2018-06-16T00:37:33.923Z,17.20
2018-06-16T00:42:18.472Z,17.30
2018-06-16T00:47:02.815Z,17.30
2018-06-16T00:51:47.349Z,17.30
2018-06-16T00:56:31.759Z,17.30
2018-06-16T01:01:16.243Z,17.20
2018-06-16T01:06:00.770Z,17.20
2018-06-16T01:10:45.143Z,17.10
2018-06-16T01:15:29.594Z,17.10
2018-06-16T01:20:13.942Z,17.10
2018-06-16T01:24:58.402Z,16.90
2018-06-16T01:29:43.028Z,16.80
2018-06-16T01:34:27.427Z,16.80
2018-06-16T01:43:57.156Z,16.70
2018-06-16T01:48:41.628Z,16.70
2018-06-16T01:53:26.015Z,16.70
2018-06-16T01:58:10.438Z,16.70
2018-06-16T02:02:55.121Z,16.80
2018-06-16T02:07:39.787Z,16.80
2018-06-16T02:12:24.271Z,16.80
2018-06-16T02:17:08.631Z,16.70
2018-06-16T02:21:53.015Z,16.70
2018-06-16T02:26:37.520Z,16.70
2018-06-16T02:31:21.955Z,16.60
2018-06-16T02:36:06.997Z,16.60
2018-06-16T02:40:51.661Z,16.50
2018-06-16T02:45:36.042Z,16.60
2018-06-16T02:50:20.696Z,16.50
2018-06-16T02:55:05.456Z,16.40
2018-06-16T02:59:49.865Z,16.40
2018-06-16T03:04:34.238Z,16.40
2018-06-16T03:09:18.696Z,16.40
2018-06-16T03:14:03.377Z,16.40
2018-06-16T03:18:47.782Z,16.50
2018-06-16T03:23:32.792Z,16.40
2018-06-16T03:28:17.155Z,16.40
2018-06-16T03:33:01.499Z,16.50
2018-06-16T03:37:45.830Z,16.50
2018-06-16T03:42:30.379Z,16.50
2018-06-16T03:47:14.799Z,16.50
2018-06-16T03:51:59.142Z,16.60
2018-06-16T03:56:43.536Z,16.60
2018-06-16T04:01:28.263Z,16.70
2018-06-16T04:06:12.865Z,16.70
2018-06-16T04:10:57.395Z,16.80
2018-06-16T04:15:41.894Z,17.00
2018-06-16T04:20:26.296Z,17.10
2018-06-16T04:25:10.629Z,17.10
2018-06-16T04:29:54.991Z,16.90
2018-06-16T04:34:39.461Z,17.00
2018-06-16T04:39:23.966Z,17.10
2018-06-16T04:44:08.374Z,17.30
2018-06-16T04:48:52.996Z,17.40
2018-06-16T04:53:37.721Z,17.40
2018-06-16T04:58:22.190Z,17.50
2018-06-16T05:03:07.019Z,17.60
2018-06-16T05:07:51.421Z,17.60
2018-06-16T05:12:35.795Z,17.70
2018-06-16T05:17:20.210Z,17.80
2018-06-16T05:22:04.787Z,17.90
2018-06-16T05:26:49.233Z,18.00
2018-06-16T05:31:33.856Z,18.10
2018-06-16T05:36:18.619Z,18.20
2018-06-16T05:41:03.055Z,18.40
2018-06-16T05:45:47.564Z,18.50
2018-06-16T05:50:32.002Z,18.60
2018-06-16T05:55:22.901Z,18.80
2018-06-16T06:00:07.512Z,18.90
2018-06-16T06:04:52.692Z,19.00
2018-06-16T06:09:37.160Z,19.10
2018-06-16T06:14:21.721Z,19.20
2018-06-16T06:19:06.260Z,19.60
2018-06-16T06:23:50.731Z,19.70
2018-06-16T06:28:35.116Z,19.90
2018-06-16T06:33:19.819Z,20.00
2018-06-16T06:38:04.444Z,20.20
2018-06-16T06:42:49.298Z,20.50
2018-06-16T06:47:38.450Z,20.80
2018-06-16T06:52:39.338Z,21.10
2018-06-16T06:57:26.300Z,21.60
2018-06-16T07:02:14.789Z,22.00
2018-06-16T07:07:00.820Z,22.40
2018-06-16T07:11:51.568Z,22.80
2018-06-16T07:16:36.179Z,23.20
2018-06-16T07:21:20.602Z,23.80
2018-06-16T07:26:05.268Z,24.30
2018-06-16T07:30:49.687Z,24.30
2018-06-16T07:35:34.119Z,24.40
2018-06-16T07:40:18.574Z,24.60
2018-06-16T07:45:02.883Z,25.20
2018-06-16T07:49:47.262Z,25.80
2018-06-16T07:54:31.655Z,26.00
2018-06-16T07:59:17.307Z,26.20
2018-06-16T08:04:01.708Z,26.40
2018-06-16T08:08:46.255Z,26.90
2018-06-16T08:13:30.735Z,27.50
2018-06-16T08:18:15.172Z,27.00
2018-06-16T08:22:59.522Z,27.10
2018-06-16T08:27:44.121Z,27.40
2018-06-16T08:32:28.650Z,27.40
2018-06-16T08:37:13.080Z,27.30
2018-06-16T08:41:57.505Z,27.10
2018-06-16T08:46:41.903Z,27.20
2018-06-16T08:51:26.366Z,27.60
2018-06-16T08:56:10.794Z,27.90
2018-06-16T09:00:55.170Z,28.00
2018-06-16T09:05:40.570Z,28.60
2018-06-16T09:10:25.056Z,29.50
2018-06-16T09:15:09.499Z,29.50
2018-06-16T09:19:54.193Z,29.20
2018-06-16T09:24:38.606Z,29.10
2018-06-16T09:29:23.062Z,29.50
2018-06-16T09:34:08.366Z,30.40
2018-06-16T09:38:52.886Z,30.50
2018-06-16T09:43:38.352Z,30.70
2018-06-16T09:48:22.744Z,31.00
2018-06-16T09:53:07.364Z,30.90
2018-06-16T09:57:51.784Z,31.00
2018-06-16T10:02:36.320Z,30.20
2018-06-16T10:07:20.850Z,31.20
2018-06-16T10:12:05.401Z,31.70
2018-06-16T10:16:49.950Z,31.80
2018-06-16T10:21:34.452Z,31.10
2018-06-16T10:26:18.994Z,30.30
2018-06-16T10:31:03.436Z,29.30
2018-06-16T10:35:47.863Z,29.40
2018-06-16T10:40:32.262Z,29.10
2018-06-16T10:45:16.720Z,28.90
2018-06-16T10:50:01.114Z,29.00
2018-06-16T10:54:45.586Z,29.00
2018-06-16T10:59:30.166Z,29.10
2018-06-16T11:04:14.839Z,29.30
2018-06-16T11:08:59.170Z,28.80
2018-06-16T11:13:43.780Z,28.40
2018-06-16T11:18:28.335Z,28.40
2018-06-16T11:23:13.044Z,28.20
2018-06-16T11:27:58.618Z,28.30
2018-06-16T11:32:43.194Z,28.50
2018-06-16T11:37:27.799Z,28.80
2018-06-16T11:42:12.269Z,28.10
2018-06-16T11:46:56.713Z,28.00
2018-06-16T11:51:41.376Z,27.90
2018-06-16T11:56:25.781Z,27.60
2018-06-16T12:01:11.178Z,27.30
2018-06-16T12:05:55.984Z,27.20
2018-06-16T12:10:40.563Z,27.10
2018-06-16T12:15:25.841Z,27.20
2018-06-16T12:20:10.331Z,27.20
2018-06-16T12:24:54.753Z,27.20
2018-06-16T12:29:40.945Z,27.10
2018-06-16T12:34:25.308Z,27.00
2018-06-16T12:39:10.835Z,27.20
2018-06-16T12:43:55.452Z,27.50
2018-06-16T12:48:39.830Z,27.80
2018-06-16T12:53:24.804Z,27.70
2018-06-16T12:58:09.122Z,27.80
2018-06-16T13:02:53.705Z,28.00
2018-06-16T13:07:38.432Z,28.10
2018-06-16T13:12:23.053Z,28.90
2018-06-16T13:17:07.722Z,29.80
2018-06-16T13:21:52.270Z,30.70
2018-06-16T13:26:36.868Z,31.80
2018-06-16T13:31:21.531Z,31.70
2018-06-16T13:36:05.939Z,31.60
2018-06-16T13:40:50.645Z,31.40
2018-06-16T13:45:35.189Z,31.00
2018-06-16T13:50:19.544Z,30.20
2018-06-16T13:55:03.926Z,29.80
2018-06-16T13:59:48.370Z,29.60
2018-06-16T14:04:32.872Z,29.40
2018-06-16T14:09:17.276Z,29.60
2018-06-16T14:14:01.722Z,29.60
2018-06-16T14:18:46.339Z,30.20
2018-06-16T14:23:30.970Z,31.40
2018-06-16T14:28:15.291Z,32.60
2018-06-16T14:32:59.698Z,33.40
2018-06-16T14:37:44.199Z,33.80
2018-06-16T14:42:28.539Z,33.70
2018-06-16T14:47:12.904Z,33.30
2018-06-16T14:51:57.330Z,33.10
2018-06-16T14:56:41.704Z,31.90
2018-06-16T15:01:26.122Z,32.00
2018-06-16T15:06:10.533Z,32.60
2018-06-16T15:10:55.386Z,32.60
2018-06-16T15:15:40.046Z,32.80
2018-06-16T15:20:24.410Z,32.60
2018-06-16T15:25:08.772Z,33.20
2018-06-16T15:29:53.242Z,33.30
2018-06-16T15:34:37.723Z,32.90
2018-06-16T15:39:22.129Z,32.50
2018-06-16T15:44:06.699Z,32.00
2018-06-16T15:48:51.028Z,31.50
2018-06-16T15:53:35.588Z,31.10
2018-06-16T15:58:20.046Z,30.20
2018-06-16T16:03:04.385Z,29.50
2018-06-16T16:07:49.674Z,28.80
2018-06-16T16:12:34.249Z,28.60
2018-06-16T16:17:18.702Z,27.80
2018-06-16T16:22:03.250Z,27.10
2018-06-16T16:26:47.662Z,27.10
2018-06-16T16:31:32.144Z,27.00
2018-06-16T16:36:16.599Z,26.80
2018-06-16T16:41:01.118Z,26.60
2018-06-16T16:45:45.656Z,26.70
2018-06-16T16:50:30.149Z,26.60
2018-06-16T16:55:14.510Z,27.80
2018-06-16T16:59:58.939Z,28.20
2018-06-16T17:04:43.365Z,27.80
2018-06-16T17:09:28.535Z,27.20
2018-06-16T17:14:13.028Z,26.20
2018-06-16T17:18:57.626Z,25.50
2018-06-16T17:23:42.004Z,25.00
2018-06-16T17:28:26.359Z,24.70
2018-06-16T17:33:10.754Z,24.40
2018-06-16T17:37:55.238Z,24.20
2018-06-16T17:42:39.690Z,24.10
2018-06-16T17:47:24.391Z,23.90
2018-06-16T17:52:08.849Z,23.80
2018-06-16T17:56:53.263Z,23.60
2018-06-16T18:01:37.735Z,23.40
2018-06-16T18:06:22.116Z,23.10
2018-06-16T18:11:06.680Z,22.90
2018-06-16T18:15:51.182Z,22.70
2018-06-16T18:25:20.275Z,22.30
2018-06-16T18:30:04.787Z,22.10
2018-06-16T18:34:49.342Z,21.90
2018-06-16T18:39:33.735Z,21.80
2018-06-16T18:44:18.236Z,21.40
2018-06-16T18:49:02.883Z,21.20
2018-06-16T18:53:47.395Z,21.10
2018-06-16T18:58:31.818Z,21.00
2018-06-16T19:03:16.225Z,20.90
2018-06-16T19:08:00.758Z,20.90
2018-06-16T19:12:46.202Z,20.80
2018-06-16T19:17:30.689Z,20.70
2018-06-16T19:22:15.264Z,20.70
2018-06-16T19:26:59.816Z,20.60
2018-06-16T19:31:44.410Z,20.40
2018-06-16T19:36:29.022Z,20.30
2018-06-16T19:41:13.585Z,20.20
2018-06-16T19:45:58.089Z,20.20
2018-06-16T19:50:42.726Z,20.00
2018-06-16T19:55:27.617Z,19.80
2018-06-16T20:00:12.193Z,19.60
2018-06-16T20:04:57.039Z,19.40
2018-06-16T20:09:41.659Z,19.20
2018-06-16T20:14:26.119Z,19.00
2018-06-16T20:19:10.735Z,18.80
2018-06-16T20:23:55.268Z,18.80
2018-06-16T20:28:39.699Z,18.60
2018-06-16T20:33:24.156Z,18.70
2018-06-16T20:38:08.576Z,19.00
2018-06-16T20:42:53.072Z,19.30
2018-06-16T20:47:37.881Z,19.50
2018-06-16T20:52:22.585Z,19.60
2018-06-16T21:01:51.067Z,19.50
2018-06-16T21:06:35.494Z,19.50
2018-06-16T21:11:20.046Z,19.40
2018-06-16T21:16:04.474Z,19.40
2018-06-16T21:20:48.866Z,19.30
2018-06-16T21:25:33.402Z,19.10
2018-06-16T21:30:17.847Z,19.00
2018-06-16T21:35:02.430Z,18.90
2018-06-16T21:39:46.762Z,18.70
2018-06-16T21:44:31.222Z,18.60
2018-06-16T21:49:15.646Z,18.60
2018-06-16T21:54:00.111Z,18.50
2018-06-16T21:58:44.654Z,18.50
2018-06-16T22:03:29.137Z,18.40
2018-06-16T22:08:18.650Z,18.50
2018-06-16T22:13:03.069Z,18.60
2018-06-16T22:17:47.919Z,18.70
2018-06-16T22:22:32.321Z,18.60
2018-06-16T22:27:16.815Z,18.60
2018-06-16T22:32:01.222Z,18.50
2018-06-16T22:36:45.594Z,18.40
2018-06-16T22:41:29.967Z,18.40
2018-06-16T22:46:14.506Z,18.20
2018-06-16T22:55:42.807Z,18.00
2018-06-16T23:00:28.890Z,17.90
2018-06-16T23:05:13.355Z,17.90
2018-06-16T23:09:57.884Z,17.80
2018-06-16T23:14:43.118Z,17.80
2018-06-16T23:19:27.458Z,17.70
2018-06-16T23:24:12.880Z,17.70
2018-06-16T23:28:57.588Z,17.70
2018-06-16T23:33:42.015Z,17.70
2018-06-16T23:38:26.887Z,17.80
2018-06-16T23:43:11.198Z,17.80
2018-06-16T23:47:55.716Z,17.70
2018-06-16T23:52:40.121Z,17.70
2018-06-16T23:57:24.548Z,17.70
